sensor_id;sensor_type;location;lat;lon;timestamp;pressure;altitude;pressure_sealevel;temperature;humidity
16016;BME280;8112;53.592;10.184;2023-12-22T00:01:23;98437.16;;;4.97;100.00
16016;BME280;8112;53.592;10.184;2023-12-22T00:06:26;98437.66;;;5.03;100.00
16016;BME280;8112;53.592;10.184;2023-12-22T00:11:27;98447.38;;;5.01;100.00
16016;BME280;8112;53.592;10.184;2023-12-22T00:16:29;98457.44;;;4.94;100.00
16016;BME280;8112;53.592;10.184;2023-12-22T00:21:32;98451.34;;;4.93;100.00
16016;BME280;8112;53.592;10.184;2023-12-22T00:26:34;98449.28;;;4.98;100.00
16016;BME280;8112;53.592;10.184;2023-12-22T00:31:35;98454.72;;;4.95;100.00
16016;BME280;8112;53.592;10.184;2023-12-22T00:36:38;98463.84;;;5.01;100.00
16016;BME280;8112;53.592;10.184;2023-12-22T00:41:40;98481.63;;;4.96;100.00
16016;BME280;8112;53.592;10.184;2023-12-22T00:46:42;98476.34;;;5.09;100.00
16016;BME280;8112;53.592;10.184;2023-12-22T00:51:45;98485.59;;;5.26;100.00
16016;BME280;8112;53.592;10.184;2023-12-22T00:56:47;98488.06;;;5.27;100.00
16016;BME280;8112;53.592;10.184;2023-12-22T01:01:49;98488.28;;;5.24;100.00
16016;BME280;8112;53.592;10.184;2023-12-22T01:06:52;98492.47;;;5.27;100.00
16016;BME280;8112;53.592;10.184;2023-12-22T01:11:53;98484.72;;;5.25;100.00
16016;BME280;8112;53.592;10.184;2023-12-22T01:16:55;98481.63;;;5.20;100.00
16016;BME280;8112;53.592;10.184;2023-12-22T01:22:06;98494.47;;;5.23;100.00
16016;BME280;8112;53.592;10.184;2023-12-22T01:27:07;98495.03;;;5.16;100.00
16016;BME280;8112;53.592;10.184;2023-12-22T01:32:09;98498.06;;;4.85;100.00
16016;BME280;8112;53.592;10.184;2023-12-22T01:37:12;98536.84;;;4.26;100.00
16016;BME280;8112;53.592;10.184;2023-12-22T01:42:14;98553.50;;;3.72;100.00
16016;BME280;8112;53.592;10.184;2023-12-22T01:47:16;98571.34;;;3.23;100.00
16016;BME280;8112;53.592;10.184;2023-12-22T01:52:19;98553.09;;;2.96;100.00
16016;BME280;8112;53.592;10.184;2023-12-22T01:57:21;98567.16;;;2.79;100.00
16016;BME280;8112;53.592;10.184;2023-12-22T02:02:24;98555.38;;;2.73;100.00
16016;BME280;8112;53.592;10.184;2023-12-22T02:07:27;98572.19;;;2.67;100.00
16016;BME280;8112;53.592;10.184;2023-12-22T02:12:29;98557.50;;;2.66;100.00
16016;BME280;8112;53.592;10.184;2023-12-22T02:17:40;98562.25;;;2.60;100.00
16016;BME280;8112;53.592;10.184;2023-12-22T02:22:44;98551.31;;;2.54;100.00
16016;BME280;8112;53.592;10.184;2023-12-22T02:27:48;98548.22;;;2.62;100.00
16016;BME280;8112;53.592;10.184;2023-12-22T02:32:52;98551.56;;;2.79;100.00
16016;BME280;8112;53.592;10.184;2023-12-22T02:37:58;98546.34;;;2.93;100.00
16016;BME280;8112;53.592;10.184;2023-12-22T02:43:01;98554.94;;;3.08;100.00
16016;BME280;8112;53.592;10.184;2023-12-22T02:48:04;98551.50;;;3.08;100.00
16016;BME280;8112;53.592;10.184;2023-12-22T02:53:08;98570.28;;;2.98;100.00
16016;BME280;8112;53.592;10.184;2023-12-22T02:58:09;98537.41;;;2.97;100.00
16016;BME280;8112;53.592;10.184;2023-12-22T03:03:11;98580.91;;;2.95;100.00
16016;BME280;8112;53.592;10.184;2023-12-22T03:08:15;98571.72;;;2.90;100.00
16016;BME280;8112;53.592;10.184;2023-12-22T03:13:16;98607.09;;;2.92;100.00
16016;BME280;8112;53.592;10.184;2023-12-22T03:18:18;98598.28;;;2.80;100.00
16016;BME280;8112;53.592;10.184;2023-12-22T03:23:21;98587.97;;;2.64;100.00
16016;BME280;8112;53.592;10.184;2023-12-22T03:28:23;98572.19;;;2.38;100.00
16016;BME280;8112;53.592;10.184;2023-12-22T03:33:24;98590.38;;;2.24;100.00
16016;BME280;8112;53.592;10.184;2023-12-22T03:38:27;98596.13;;;2.29;100.00
16016;BME280;8112;53.592;10.184;2023-12-22T03:43:29;98561.03;;;2.22;100.00
16016;BME280;8112;53.592;10.184;2023-12-22T03:48:31;98576.38;;;2.41;100.00
16016;BME280;8112;53.592;10.184;2023-12-22T03:53:34;98573.22;;;2.36;100.00
16016;BME280;8112;53.592;10.184;2023-12-22T03:58:37;98569.03;;;2.33;100.00
16016;BME280;8112;53.592;10.184;2023-12-22T04:03:38;98549.91;;;2.34;100.00
16016;BME280;8112;53.592;10.184;2023-12-22T04:08:41;98547.75;;;2.41;100.00
16016;BME280;8112;53.592;10.184;2023-12-22T04:13:43;98541.63;;;2.42;100.00
16016;BME280;8112;53.592;10.184;2023-12-22T04:18:45;98525.19;;;2.70;100.00
16016;BME280;8112;53.592;10.184;2023-12-22T04:23:48;98537.22;;;2.86;100.00
16016;BME280;8112;53.592;10.184;2023-12-22T04:28:49;98530.84;;;3.19;100.00
16016;BME280;8112;53.592;10.184;2023-12-22T04:33:51;98529.16;;;3.46;100.00
16016;BME280;8112;53.592;10.184;2023-12-22T04:38:54;98530.09;;;3.45;100.00
16016;BME280;8112;53.592;10.184;2023-12-22T04:43:56;98548.78;;;3.24;100.00
16016;BME280;8112;53.592;10.184;2023-12-22T04:48:58;98546.66;;;3.16;100.00
16016;BME280;8112;53.592;10.184;2023-12-22T04:54:01;98560.13;;;3.23;100.00
16016;BME280;8112;53.592;10.184;2023-12-22T04:59:02;98554.41;;;3.03;100.00
16016;BME280;8112;53.592;10.184;2023-12-22T05:04:04;98544.50;;;2.81;100.00
16016;BME280;8112;53.592;10.184;2023-12-22T05:09:07;98555.34;;;3.02;100.00
16016;BME280;8112;53.592;10.184;2023-12-22T05:14:09;98549.59;;;3.24;100.00
16016;BME280;8112;53.592;10.184;2023-12-22T05:19:11;98559.25;;;3.22;100.00
16016;BME280;8112;53.592;10.184;2023-12-22T05:24:14;98558.44;;;3.49;100.00
16016;BME280;8112;53.592;10.184;2023-12-22T05:29:16;98545.59;;;3.46;100.00
16016;BME280;8112;53.592;10.184;2023-12-22T05:34:17;98552.13;;;3.11;100.00
16016;BME280;8112;53.592;10.184;2023-12-22T05:39:20;98557.09;;;3.02;100.00
16016;BME280;8112;53.592;10.184;2023-12-22T05:44:22;98599.72;;;3.13;100.00
16016;BME280;8112;53.592;10.184;2023-12-22T05:49:24;98627.34;;;2.44;100.00
16016;BME280;8112;53.592;10.184;2023-12-22T05:54:27;98627.41;;;1.66;100.00
16016;BME280;8112;53.592;10.184;2023-12-22T05:59:29;98612.59;;;1.36;100.00
16016;BME280;8112;53.592;10.184;2023-12-22T06:04:32;98639.66;;;1.32;100.00
16016;BME280;8112;53.592;10.184;2023-12-22T06:09:36;98643.16;;;1.31;100.00
16016;BME280;8112;53.592;10.184;2023-12-22T06:14:40;98669.78;;;1.35;100.00
16016;BME280;8112;53.592;10.184;2023-12-22T06:19:41;98684.00;;;1.60;100.00
16016;BME280;8112;53.592;10.184;2023-12-22T06:24:44;98689.19;;;1.60;100.00
16016;BME280;8112;53.592;10.184;2023-12-22T06:29:46;98666.19;;;1.53;100.00
16016;BME280;8112;53.592;10.184;2023-12-22T06:34:48;98680.31;;;1.64;100.00
16016;BME280;8112;53.592;10.184;2023-12-22T06:39:51;98687.88;;;1.84;100.00
16016;BME280;8112;53.592;10.184;2023-12-22T06:44:52;98699.41;;;1.95;100.00
16016;BME280;8112;53.592;10.184;2023-12-22T06:49:54;98696.13;;;2.07;100.00
16016;BME280;8112;53.592;10.184;2023-12-22T06:54:57;98723.25;;;2.18;100.00
16016;BME280;8112;53.592;10.184;2023-12-22T06:59:59;98718.50;;;2.40;100.00
16016;BME280;8112;53.592;10.184;2023-12-22T07:05:34;98736.38;;;2.61;100.00
16016;BME280;8112;53.592;10.184;2023-12-22T07:10:38;98733.47;;;2.96;100.00
16016;BME280;8112;53.592;10.184;2023-12-22T07:15:40;98751.13;;;3.20;100.00
16016;BME280;8112;53.592;10.184;2023-12-22T07:20:41;98749.84;;;3.13;100.00
16016;BME280;8112;53.592;10.184;2023-12-22T07:25:47;98747.13;;;3.00;100.00
16016;BME280;8112;53.592;10.184;2023-12-22T07:30:48;98758.56;;;3.12;100.00
16016;BME280;8112;53.592;10.184;2023-12-22T07:35:50;98767.66;;;3.05;100.00
16016;BME280;8112;53.592;10.184;2023-12-22T07:40:53;98789.63;;;3.15;100.00
16016;BME280;8112;53.592;10.184;2023-12-22T07:45:55;98781.25;;;3.39;100.00
16016;BME280;8112;53.592;10.184;2023-12-22T07:50:57;98807.50;;;3.50;100.00
16016;BME280;8112;53.592;10.184;2023-12-22T07:56:00;98778.28;;;3.31;100.00
16016;BME280;8112;53.592;10.184;2023-12-22T08:01:02;98797.44;;;3.30;100.00
16016;BME280;8112;53.592;10.184;2023-12-22T08:06:04;98812.03;;;3.32;100.00
16016;BME280;8112;53.592;10.184;2023-12-22T08:11:07;98834.63;;;3.46;100.00
16016;BME280;8112;53.592;10.184;2023-12-22T08:16:09;98848.94;;;3.39;100.00
16016;BME280;8112;53.592;10.184;2023-12-22T08:21:11;98853.03;;;2.67;100.00
16016;BME280;8112;53.592;10.184;2023-12-22T08:26:14;98851.16;;;2.23;100.00
16016;BME280;8112;53.592;10.184;2023-12-22T08:31:17;98884.44;;;2.16;100.00
16016;BME280;8112;53.592;10.184;2023-12-22T08:36:19;98888.13;;;2.12;100.00
16016;BME280;8112;53.592;10.184;2023-12-22T08:41:22;98891.09;;;2.22;100.00
16016;BME280;8112;53.592;10.184;2023-12-22T08:46:24;98893.34;;;2.28;100.00
16016;BME280;8112;53.592;10.184;2023-12-22T08:51:27;98897.78;;;2.58;100.00
16016;BME280;8112;53.592;10.184;2023-12-22T08:56:30;98892.63;;;2.73;100.00
16016;BME280;8112;53.592;10.184;2023-12-22T09:01:32;98900.94;;;2.79;100.00
16016;BME280;8112;53.592;10.184;2023-12-22T09:06:33;98904.59;;;2.91;100.00
16016;BME280;8112;53.592;10.184;2023-12-22T09:11:36;98911.94;;;3.15;100.00
16016;BME280;8112;53.592;10.184;2023-12-22T09:16:38;98905.31;;;3.40;100.00
16016;BME280;8112;53.592;10.184;2023-12-22T09:21:40;98912.03;;;3.59;100.00
16016;BME280;8112;53.592;10.184;2023-12-22T09:26:43;98900.69;;;3.60;100.00
16016;BME280;8112;53.592;10.184;2023-12-22T09:31:45;98926.09;;;3.70;100.00
16016;BME280;8112;53.592;10.184;2023-12-22T09:36:47;98917.47;;;3.84;100.00
16016;BME280;8112;53.592;10.184;2023-12-22T09:41:50;98920.88;;;3.85;100.00
16016;BME280;8112;53.592;10.184;2023-12-22T09:46:52;98937.28;;;4.02;100.00
16016;BME280;8112;53.592;10.184;2023-12-22T09:51:54;98936.41;;;4.16;100.00
16016;BME280;8112;53.592;10.184;2023-12-22T09:56:59;98912.88;;;4.32;100.00
16016;BME280;8112;53.592;10.184;2023-12-22T10:02:02;98917.59;;;4.39;100.00
16016;BME280;8112;53.592;10.184;2023-12-22T10:07:06;98936.69;;;4.82;100.00
16016;BME280;8112;53.592;10.184;2023-12-22T10:12:11;98906.31;;;4.81;100.00
16016;BME280;8112;53.592;10.184;2023-12-22T10:17:13;98909.59;;;4.70;100.00
16016;BME280;8112;53.592;10.184;2023-12-22T10:22:26;98919.59;;;4.63;100.00
16016;BME280;8112;53.592;10.184;2023-12-22T10:27:29;98919.19;;;4.69;100.00
16016;BME280;8112;53.592;10.184;2023-12-22T10:32:33;98918.84;;;4.61;100.00
16016;BME280;8112;53.592;10.184;2023-12-22T10:37:37;98919.78;;;4.60;100.00
16016;BME280;8112;53.592;10.184;2023-12-22T10:42:40;98917.06;;;4.62;100.00
16016;BME280;8112;53.592;10.184;2023-12-22T10:47:42;98909.16;;;4.63;100.00
16016;BME280;8112;53.592;10.184;2023-12-22T10:52:50;98916.03;;;4.64;100.00
16016;BME280;8112;53.592;10.184;2023-12-22T10:57:52;98932.41;;;4.81;100.00
16016;BME280;8112;53.592;10.184;2023-12-22T11:03:00;98916.28;;;4.74;100.00
16016;BME280;8112;53.592;10.184;2023-12-22T11:08:06;98900.00;;;4.70;100.00
16016;BME280;8112;53.592;10.184;2023-12-22T11:13:10;98935.59;;;4.71;100.00
16016;BME280;8112;53.592;10.184;2023-12-22T11:18:15;98947.59;;;4.74;100.00
16016;BME280;8112;53.592;10.184;2023-12-22T11:23:20;98952.09;;;4.72;100.00
16016;BME280;8112;53.592;10.184;2023-12-22T11:28:23;98958.69;;;4.78;100.00
16016;BME280;8112;53.592;10.184;2023-12-22T11:33:25;98959.13;;;4.84;100.00
16016;BME280;8112;53.592;10.184;2023-12-22T11:38:31;98953.97;;;4.97;100.00
16016;BME280;8112;53.592;10.184;2023-12-22T11:43:34;98948.38;;;4.89;100.00
16016;BME280;8112;53.592;10.184;2023-12-22T11:48:37;98953.66;;;4.75;100.00
16016;BME280;8112;53.592;10.184;2023-12-22T11:53:43;98943.72;;;4.94;100.00
16016;BME280;8112;53.592;10.184;2023-12-22T11:58:46;98942.19;;;5.05;100.00
16016;BME280;8112;53.592;10.184;2023-12-22T12:03:53;98938.72;;;5.32;100.00
16016;BME280;8112;53.592;10.184;2023-12-22T12:08:58;98943.06;;;5.18;100.00
16016;BME280;8112;53.592;10.184;2023-12-22T12:14:07;98941.16;;;5.07;100.00
16016;BME280;8112;53.592;10.184;2023-12-22T12:19:12;98948.38;;;5.17;100.00
16016;BME280;8112;53.592;10.184;2023-12-22T12:24:15;98937.94;;;5.30;100.00
16016;BME280;8112;53.592;10.184;2023-12-22T12:29:20;98936.41;;;5.27;100.00
16016;BME280;8112;53.592;10.184;2023-12-22T12:34:22;98945.78;;;5.17;100.00
16016;BME280;8112;53.592;10.184;2023-12-22T12:39:30;98959.47;;;4.93;100.00
16016;BME280;8112;53.592;10.184;2023-12-22T12:44:33;98942.63;;;4.84;100.00
16016;BME280;8112;53.592;10.184;2023-12-22T12:49:36;98937.41;;;4.84;100.00
16016;BME280;8112;53.592;10.184;2023-12-22T12:54:40;98931.75;;;4.77;100.00
16016;BME280;8112;53.592;10.184;2023-12-22T12:59:45;98934.34;;;4.77;100.00
16016;BME280;8112;53.592;10.184;2023-12-22T13:04:47;98953.38;;;4.79;100.00
16016;BME280;8112;53.592;10.184;2023-12-22T13:09:51;98947.34;;;4.64;100.00
16016;BME280;8112;53.592;10.184;2023-12-22T13:14:54;98937.69;;;4.52;100.00
16016;BME280;8112;53.592;10.184;2023-12-22T13:19:57;98934.94;;;4.40;100.00
16016;BME280;8112;53.592;10.184;2023-12-22T13:25:00;98937.16;;;4.32;100.00
16016;BME280;8112;53.592;10.184;2023-12-22T13:30:03;98939.75;;;4.32;100.00
16016;BME280;8112;53.592;10.184;2023-12-22T13:35:06;98947.69;;;4.31;100.00
16016;BME280;8112;53.592;10.184;2023-12-22T13:40:12;98958.94;;;4.02;100.00
16016;BME280;8112;53.592;10.184;2023-12-22T13:45:15;98944.97;;;3.60;100.00
16016;BME280;8112;53.592;10.184;2023-12-22T13:50:18;98956.38;;;3.42;100.00
16016;BME280;8112;53.592;10.184;2023-12-22T13:55:26;98944.91;;;3.31;100.00
16016;BME280;8112;53.592;10.184;2023-12-22T14:00:28;98959.75;;;3.28;100.00
16016;BME280;8112;53.592;10.184;2023-12-22T14:05:31;98965.88;;;3.27;100.00
16016;BME280;8112;53.592;10.184;2023-12-22T14:10:36;98969.25;;;3.30;100.00
16016;BME280;8112;53.592;10.184;2023-12-22T14:15:38;98976.75;;;3.50;100.00
16016;BME280;8112;53.592;10.184;2023-12-22T14:20:40;98976.03;;;3.63;100.00
16016;BME280;8112;53.592;10.184;2023-12-22T14:25:43;98963.75;;;3.65;100.00
16016;BME280;8112;53.592;10.184;2023-12-22T14:30:46;98941.25;;;3.78;100.00
16016;BME280;8112;53.592;10.184;2023-12-22T14:35:48;98963.88;;;3.78;100.00
16016;BME280;8112;53.592;10.184;2023-12-22T14:40:52;98971.41;;;3.82;100.00
16016;BME280;8112;53.592;10.184;2023-12-22T14:45:54;98982.97;;;3.93;100.00
16016;BME280;8112;53.592;10.184;2023-12-22T14:50:56;98960.44;;;3.92;100.00
16016;BME280;8112;53.592;10.184;2023-12-22T14:55:59;98961.38;;;3.91;100.00
16016;BME280;8112;53.592;10.184;2023-12-22T15:01:03;98968.34;;;3.90;100.00
16016;BME280;8112;53.592;10.184;2023-12-22T15:06:05;98967.34;;;3.93;100.00
16016;BME280;8112;53.592;10.184;2023-12-22T15:11:09;98975.34;;;4.04;100.00
16016;BME280;8112;53.592;10.184;2023-12-22T15:16:11;98981.09;;;3.95;100.00
16016;BME280;8112;53.592;10.184;2023-12-22T15:21:19;99001.75;;;3.83;100.00
16016;BME280;8112;53.592;10.184;2023-12-22T15:26:23;98999.25;;;3.82;100.00
16016;BME280;8112;53.592;10.184;2023-12-22T15:31:26;98995.31;;;3.75;100.00
16016;BME280;8112;53.592;10.184;2023-12-22T15:36:29;98994.75;;;3.69;100.00
16016;BME280;8112;53.592;10.184;2023-12-22T15:41:33;98996.53;;;3.69;100.00
16016;BME280;8112;53.592;10.184;2023-12-22T15:46:34;99010.50;;;3.82;100.00
16016;BME280;8112;53.592;10.184;2023-12-22T15:51:36;98991.69;;;3.77;100.00
16016;BME280;8112;53.592;10.184;2023-12-22T15:56:40;98987.03;;;3.68;100.00
16016;BME280;8112;53.592;10.184;2023-12-22T16:01:42;98973.63;;;3.74;100.00
16016;BME280;8112;53.592;10.184;2023-12-22T16:06:45;98978.47;;;3.80;100.00
16016;BME280;8112;53.592;10.184;2023-12-22T16:11:49;98982.09;;;3.63;100.00
16016;BME280;8112;53.592;10.184;2023-12-22T16:16:54;98974.84;;;3.68;100.00
16016;BME280;8112;53.592;10.184;2023-12-22T16:21:56;98971.38;;;3.53;100.00
16016;BME280;8112;53.592;10.184;2023-12-22T16:27:02;98989.50;;;3.55;100.00
16016;BME280;8112;53.592;10.184;2023-12-22T16:32:04;99000.84;;;3.54;100.00
16016;BME280;8112;53.592;10.184;2023-12-22T16:37:07;99008.13;;;3.63;100.00
16016;BME280;8112;53.592;10.184;2023-12-22T16:42:10;99008.34;;;3.75;100.00
16016;BME280;8112;53.592;10.184;2023-12-22T16:47:12;99025.19;;;3.83;100.00
16016;BME280;8112;53.592;10.184;2023-12-22T16:52:15;99066.88;;;3.53;100.00
16016;BME280;8112;53.592;10.184;2023-12-22T16:57:18;99050.47;;;3.04;100.00
16016;BME280;8112;53.592;10.184;2023-12-22T17:02:20;99045.59;;;2.82;100.00
16016;BME280;8112;53.592;10.184;2023-12-22T17:07:22;99049.38;;;2.76;100.00
16016;BME280;8112;53.592;10.184;2023-12-22T17:12:26;99069.84;;;2.66;100.00
16016;BME280;8112;53.592;10.184;2023-12-22T17:17:27;99085.66;;;2.62;100.00
16016;BME280;8112;53.592;10.184;2023-12-22T17:22:30;99094.41;;;2.61;100.00
16016;BME280;8112;53.592;10.184;2023-12-22T17:27:36;99102.19;;;2.61;100.00
16016;BME280;8112;53.592;10.184;2023-12-22T17:32:37;99076.00;;;2.48;100.00
16016;BME280;8112;53.592;10.184;2023-12-22T17:37:39;99076.16;;;2.45;100.00
16016;BME280;8112;53.592;10.184;2023-12-22T17:42:43;99063.34;;;2.41;100.00
16016;BME280;8112;53.592;10.184;2023-12-22T17:47:44;99047.72;;;2.41;100.00
16016;BME280;8112;53.592;10.184;2023-12-22T17:52:46;99061.94;;;2.34;100.00
16016;BME280;8112;53.592;10.184;2023-12-22T17:57:52;99078.47;;;2.33;100.00
16016;BME280;8112;53.592;10.184;2023-12-22T18:02:54;99085.50;;;2.31;100.00
16016;BME280;8112;53.592;10.184;2023-12-22T18:07:55;99105.47;;;2.31;100.00
16016;BME280;8112;53.592;10.184;2023-12-22T18:13:01;99099.59;;;2.27;100.00
16016;BME280;8112;53.592;10.184;2023-12-22T18:18:04;99111.72;;;2.26;100.00
16016;BME280;8112;53.592;10.184;2023-12-22T18:23:06;99121.47;;;2.23;100.00
16016;BME280;8112;53.592;10.184;2023-12-22T18:28:10;99125.03;;;2.20;100.00
16016;BME280;8112;53.592;10.184;2023-12-22T18:33:12;99116.53;;;2.34;100.00
16016;BME280;8112;53.592;10.184;2023-12-22T18:38:15;99121.06;;;2.48;100.00
16016;BME280;8112;53.592;10.184;2023-12-22T18:43:19;99103.81;;;2.63;100.00
16016;BME280;8112;53.592;10.184;2023-12-22T18:48:21;99074.03;;;2.69;100.00
16016;BME280;8112;53.592;10.184;2023-12-22T18:53:24;99093.69;;;2.91;100.00
16016;BME280;8112;53.592;10.184;2023-12-22T18:58:27;99096.47;;;3.20;100.00
16016;BME280;8112;53.592;10.184;2023-12-22T19:03:30;99107.16;;;3.31;100.00
16016;BME280;8112;53.592;10.184;2023-12-22T19:08:32;99104.63;;;3.46;100.00
16016;BME280;8112;53.592;10.184;2023-12-22T19:13:35;99101.84;;;3.49;100.00
16016;BME280;8112;53.592;10.184;2023-12-22T19:18:38;99097.13;;;3.55;100.00
16016;BME280;8112;53.592;10.184;2023-12-22T19:23:42;99091.91;;;3.55;100.00
16016;BME280;8112;53.592;10.184;2023-12-22T19:28:48;99075.13;;;3.61;100.00
16016;BME280;8112;53.592;10.184;2023-12-22T19:33:50;99094.34;;;3.59;100.00
16016;BME280;8112;53.592;10.184;2023-12-22T19:38:52;99089.13;;;3.59;100.00
16016;BME280;8112;53.592;10.184;2023-12-22T19:43:56;99111.16;;;3.69;100.00
16016;BME280;8112;53.592;10.184;2023-12-22T19:48:58;99128.63;;;3.67;100.00
16016;BME280;8112;53.592;10.184;2023-12-22T19:54:00;99138.31;;;3.33;100.00
16016;BME280;8112;53.592;10.184;2023-12-22T19:59:03;99133.19;;;3.15;100.00
16016;BME280;8112;53.592;10.184;2023-12-22T20:04:06;99141.50;;;3.38;100.00
16016;BME280;8112;53.592;10.184;2023-12-22T20:09:08;99153.25;;;3.61;100.00
16016;BME280;8112;53.592;10.184;2023-12-22T20:14:12;99153.91;;;3.65;100.00
16016;BME280;8112;53.592;10.184;2023-12-22T20:19:14;99149.91;;;3.59;100.00
16016;BME280;8112;53.592;10.184;2023-12-22T20:24:16;99135.84;;;3.62;100.00
16016;BME280;8112;53.592;10.184;2023-12-22T20:29:20;99137.78;;;3.74;100.00
16016;BME280;8112;53.592;10.184;2023-12-22T20:34:22;99115.66;;;3.81;100.00
16016;BME280;8112;53.592;10.184;2023-12-22T20:39:24;99135.97;;;3.91;100.00
16016;BME280;8112;53.592;10.184;2023-12-22T20:44:27;99136.91;;;3.90;100.00
16016;BME280;8112;53.592;10.184;2023-12-22T20:49:29;99138.16;;;3.82;100.00
16016;BME280;8112;53.592;10.184;2023-12-22T20:54:31;99119.00;;;3.83;100.00
16016;BME280;8112;53.592;10.184;2023-12-22T20:59:35;99130.22;;;4.00;100.00
16016;BME280;8112;53.592;10.184;2023-12-22T21:04:38;99132.50;;;4.21;100.00
16016;BME280;8112;53.592;10.184;2023-12-22T21:09:40;99162.41;;;3.68;100.00
16016;BME280;8112;53.592;10.184;2023-12-22T21:14:44;99188.25;;;3.23;100.00
16016;BME280;8112;53.592;10.184;2023-12-22T21:19:46;99230.34;;;1.92;100.00
16016;BME280;8112;53.592;10.184;2023-12-22T21:24:47;99248.78;;;1.86;100.00
16016;BME280;8112;53.592;10.184;2023-12-22T21:29:52;99258.34;;;1.85;100.00
16016;BME280;8112;53.592;10.184;2023-12-22T21:34:53;99273.38;;;1.79;100.00
16016;BME280;8112;53.592;10.184;2023-12-22T21:39:55;99303.22;;;1.70;100.00
16016;BME280;8112;53.592;10.184;2023-12-22T21:45:01;99320.63;;;1.68;100.00
16016;BME280;8112;53.592;10.184;2023-12-22T21:50:04;99336.41;;;1.82;100.00
16016;BME280;8112;53.592;10.184;2023-12-22T21:55:07;99356.41;;;1.80;100.00
16016;BME280;8112;53.592;10.184;2023-12-22T22:00:14;99361.31;;;1.67;100.00
16016;BME280;8112;53.592;10.184;2023-12-22T22:05:17;99349.41;;;1.42;100.00
16016;BME280;8112;53.592;10.184;2023-12-22T22:10:19;99369.09;;;1.48;100.00
16016;BME280;8112;53.592;10.184;2023-12-22T22:15:23;99375.75;;;1.54;100.00
16016;BME280;8112;53.592;10.184;2023-12-22T22:20:25;99377.19;;;1.61;100.00
16016;BME280;8112;53.592;10.184;2023-12-22T22:25:28;99398.78;;;1.62;100.00
16016;BME280;8112;53.592;10.184;2023-12-22T22:30:32;99414.31;;;1.63;100.00
16016;BME280;8112;53.592;10.184;2023-12-22T22:35:34;99414.50;;;1.59;100.00
16016;BME280;8112;53.592;10.184;2023-12-22T22:40:36;99412.69;;;1.61;100.00
16016;BME280;8112;53.592;10.184;2023-12-22T22:45:43;99438.25;;;1.70;100.00
16016;BME280;8112;53.592;10.184;2023-12-22T22:50:44;99453.19;;;1.85;100.00
16016;BME280;8112;53.592;10.184;2023-12-22T22:55:46;99460.56;;;1.95;100.00
16016;BME280;8112;53.592;10.184;2023-12-22T23:00:50;99460.69;;;1.92;100.00
16016;BME280;8112;53.592;10.184;2023-12-22T23:05:52;99467.19;;;2.02;100.00
16016;BME280;8112;53.592;10.184;2023-12-22T23:10:54;99472.75;;;2.13;100.00
16016;BME280;8112;53.592;10.184;2023-12-22T23:15:58;99485.16;;;2.07;100.00
16016;BME280;8112;53.592;10.184;2023-12-22T23:21:00;99487.84;;;2.05;100.00
16016;BME280;8112;53.592;10.184;2023-12-22T23:26:02;99488.41;;;2.12;100.00
16016;BME280;8112;53.592;10.184;2023-12-22T23:31:06;99500.69;;;2.08;100.00
16016;BME280;8112;53.592;10.184;2023-12-22T23:36:08;99514.84;;;2.01;100.00
16016;BME280;8112;53.592;10.184;2023-12-22T23:41:10;99538.91;;;2.06;100.00
16016;BME280;8112;53.592;10.184;2023-12-22T23:46:14;99549.22;;;2.08;100.00
16016;BME280;8112;53.592;10.184;2023-12-22T23:51:16;99564.22;;;2.01;100.00
16016;BME280;8112;53.592;10.184;2023-12-22T23:56:18;99567.28;;;1.90;100.00
